1NY2 weather

Oishei Childrens Hospital Heliport
Buffalo, New York, United States

Public forecast

Using degrees Fahrenheit for public forecast. Weather courtesy of forecast.io.

METAR (pilot weather report)

Closest report is Buffalo Niagara International Airport, 6.4 nm (11.9 km) ENE. Retrieved 2019/06/19 15:54 UTC (54 minutes ago):

KBUF 191554Z VRB03KT 10SM FEW037 FEW160 BKN250 BKN300 26/15 A2979 RMK AO2 SLP084 T02560150

TAF (pilot weather forecast)

Closest forecast is Buffalo Niagara International Airport, 6.4 nm (11.9 km) ENE. Retrieved 2019/06/19 12:22 UTC (4 hours ago):

TAF KBUF 191120Z 1912/2012 VRB03KT P6SM BKN120 FM191500 VRB04KT P6SM SCT035 FM192300 04006KT P6SM SCT035 FM200300 VRB03KT P6SM SCT060 FM200700 VRB03KT P6SM OVC045